This is the latest recevied weather packets stored in our database for station/object AD7ZD. If no packets are shown the sender has not sent any weather packets the latest 10 day(s).
| Time | Temp. | Humidity | Pressure | Rain* | Wind** | Luminosity | Snow |
|---|---|---|---|---|---|---|---|
| 1778167403 | 15.56° C | 53% | 1017.6 hPa | 0 mm | - | 279 W/m² | - |
| 1778167099 | 15.56° C | 55% | 1017.8 hPa | 0 mm | - | 275 W/m² | - |
| 1778166796 | 15.56° C | 55% | 1017.8 hPa | 0 mm | - | 256 W/m² | - |
| 1778166493 | 15.56° C | 51% | 1017.7 hPa | 0 mm | - | 241 W/m² | - |
| 1778166189 | 15.56° C | 52% | 1017.8 hPa | 0 mm | - | 223 W/m² | - |
| 1778165885 | 15° C | 55% | 1017.8 hPa | 0 mm | - | 177 W/m² | - |
| 1778165582 | 15° C | 54% | 1017.9 hPa | 0 mm | - | 187 W/m² | - |
| 1778165279 | 14.44° C | 56% | 1017.8 hPa | 0 mm | - | 185 W/m² | - |
| 1778164976 | 15° C | 54% | 1017.7 hPa | 0 mm | - | 159 W/m² | - |
| 1778164673 | 15.56° C | 48% | 1017.6 hPa | 0 mm | - | 138 W/m² | - |
| 1778164370 | 16.67° C | 45% | 1017.6 hPa | 0 mm | - | 124 W/m² | - |
| 1778164066 | 17.78° C | 34% | 1017.7 hPa | 0 mm | - | 71 W/m² | - |
| 1778163763 | 16.67° C | 35% | 1017.7 hPa | 0 mm | - | 57 W/m² | - |
| 1778163459 | 16.11° C | 44% | 1017.4 hPa | 0 mm | - | 53 W/m² | - |
| 1778163156 | 14.44° C | 48% | 1017.6 hPa | 0 mm | - | 50 W/m² | - |
| 1778162852 | 13.89° C | 51% | 1017.5 hPa | 0 mm | - | 46 W/m² | - |
| 1778162550 | 12.78° C | 55% | 1017.6 hPa | 0 mm | - | 44 W/m² | - |
| 1778162247 | 14.44° C | 46% | 1017.4 hPa | 0 mm | - | 42 W/m² | - |
| 1778161944 | 13.89° C | 47% | 1017.4 hPa | 0 mm | - | 38 W/m² | - |
| 1778161640 | 13.33° C | 46% | 1017.1 hPa | 0 mm | - | 34 W/m² | - |
| 1778161337 | 12.22° C | 52% | 1017.1 hPa | 0 mm | - | 31 W/m² | - |
| 1778161033 | 13.89° C | 47% | 1017.4 hPa | 0 mm | - | 29 W/m² | - |
| 1778160730 | 14.44° C | 42% | 1017.2 hPa | 0 mm | - | 26 W/m² | - |
| 1778160427 | 13.33° C | 44% | 1017.1 hPa | 0 mm | - | 22 W/m² | - |
| 1778160123 | 11.67° C | 53% | 1017.4 hPa | 0 mm | - | 18 W/m² | - |
* Rain latest hour (hover to see other rain measurements)
** Current wind speed in m/s (hover to see current wind gust speed)